Time;durP1;ratioP1;P1;durP2;ratioP2;P2;SDS_P1;SDS_P2;PMS_P1;PMS_P2;Temp;Humidity;BMP_temperature;BMP_pressure;BME280_temperature;BME280_humidity;BME280_pressure;Samples;Min_cycle;Max_cycle;Signal;HPM_P1;HPM_P2
2022/03/08 00:01:25;;;;;;;54.60;21.20;;;;;;;-0.04;67.85;101066.98;52778;1270;1016435;-59
2022/03/08 00:03:56;;;;;;;52.20;18.60;;;;;;;-0.02;67.65;101072.16;52759;1270;1016381;-56
2022/03/08 00:06:28;;;;;;;52.90;17.50;;;;;;;-0.02;67.92;101070.04;52741;1271;1017052;-57
2022/03/08 00:08:59;;;;;;;56.70;21.10;;;;;;;0.00;68.03;101071.31;52574;1271;1364723;-57
2022/03/08 00:11:31;;;;;;;56.40;20.80;;;;;;;0.00;68.00;101073.11;52734;1270;1015938;-55
2022/03/08 00:14:02;;;;;;;55.20;21.30;;;;;;;0.01;68.18;101072.80;52715;1270;1016686;-58
2022/03/08 00:16:33;;;;;;;54.80;22.90;;;;;;;-0.00;68.05;101070.67;52623;1270;1015777;-57
2022/03/08 00:19:06;;;;;;;54.40;19.80;;;;;;;-0.00;67.77;101069.83;52796;1272;1016539;-58
2022/03/08 00:21:38;;;;;;;54.70;21.40;;;;;;;0.00;67.82;101068.88;52810;1272;1016514;-56
2022/03/08 00:24:12;;;;;;;59.10;21.90;;;;;;;-0.03;67.76;101068.86;52786;1270;1016048;-56
2022/03/08 00:26:43;;;;;;;54.80;19.70;;;;;;;-0.08;67.65;101073.95;52671;1272;1016804;-56
2022/03/08 00:29:14;;;;;;;56.50;20.80;;;;;;;-0.12;67.54;101073.61;52761;1270;1019523;-60
2022/03/08 00:31:45;;;;;;;51.20;19.60;;;;;;;-0.16;67.88;101075.56;52829;1271;1015924;-56
2022/03/08 00:34:17;;;;;;;52.10;18.50;;;;;;;-0.18;67.89;101073.84;52902;1270;1016454;-59
2022/03/08 00:36:51;;;;;;;49.90;19.00;;;;;;;-0.21;67.81;101070.44;52885;1273;1015953;-55
2022/03/08 00:39:23;;;;;;;50.00;19.60;;;;;;;-0.26;67.70;101070.58;52963;1271;1016635;-56
2022/03/08 00:41:54;;;;;;;47.20;18.90;;;;;;;-0.28;67.74;101074.88;52809;1270;1017343;-56
2022/03/08 00:44:25;;;;;;;45.70;18.70;;;;;;;-0.32;67.89;101075.41;52828;1270;1016610;-56
2022/03/08 00:46:58;;;;;;;57.70;18.70;;;;;;;-0.35;68.21;101075.00;52874;1271;1016615;-58
2022/03/08 00:49:30;;;;;;;52.10;18.80;;;;;;;-0.40;68.15;101072.23;52896;1272;1016585;-54
2022/03/08 00:52:01;;;;;;;49.00;17.90;;;;;;;-0.45;68.11;101073.79;53002;1273;1016424;-56
2022/03/08 00:54:33;;;;;;;48.90;17.60;;;;;;;-0.49;67.84;101073.60;52983;1271;1016435;-57
2022/03/08 00:57:05;;;;;;;51.20;18.30;;;;;;;-0.50;67.73;101071.88;52858;1273;1016733;-54
2022/03/08 00:59:37;;;;;;;46.40;17.60;;;;;;;-0.49;67.73;101071.02;53014;1273;1016380;-56
2022/03/08 01:02:09;;;;;;;51.40;18.90;;;;;;;-0.53;67.70;101069.12;52824;1270;1016479;-55
2022/03/08 01:04:41;;;;;;;44.10;18.50;;;;;;;-0.55;67.72;101065.12;52931;1270;1018095;-58
2022/03/08 01:07:14;;;;;;;54.50;20.60;;;;;;;-0.60;67.82;101065.09;52745;1271;1017411;-57
2022/03/08 01:09:45;;;;;;;55.40;20.30;;;;;;;-0.64;67.82;101064.20;52922;1273;1018444;-59
2022/03/08 01:12:16;;;;;;;55.80;20.70;;;;;;;-0.66;67.80;101064.89;52839;1270;1016165;-55
2022/03/08 01:14:48;;;;;;;56.70;20.10;;;;;;;-0.68;67.80;101067.39;52842;1271;1016047;-55
2022/03/08 01:17:19;;;;;;;53.80;20.20;;;;;;;-0.71;67.85;101067.92;52945;1271;1016413;-58
2022/03/08 01:19:51;;;;;;;52.30;20.40;;;;;;;-0.75;67.77;101065.78;52759;1270;1016205;-58
2022/03/08 01:22:22;;;;;;;49.90;20.00;;;;;;;-0.78;67.82;101068.52;52784;1272;1015797;-57
2022/03/08 01:24:53;;;;;;;49.30;19.20;;;;;;;-0.81;67.75;101072.79;52888;1270;1016393;-57
2022/03/08 01:27:25;;;;;;;51.50;20.50;;;;;;;-0.86;67.80;101073.55;52815;1271;1016309;-55
2022/03/08 01:29:56;;;;;;;56.10;21.30;;;;;;;-0.90;67.83;101071.95;52902;1270;1019174;-57
2022/03/08 01:32:28;;;;;;;52.40;22.30;;;;;;;-0.92;67.79;101067.00;52935;1270;1016699;-58
2022/03/08 01:34:59;;;;;;;49.30;20.90;;;;;;;-0.96;68.04;101068.23;53003;1271;1016519;-58
2022/03/08 01:37:31;;;;;;;52.10;20.80;;;;;;;-1.01;68.41;101066.55;52956;1273;1016332;-57
2022/03/08 01:40:03;;;;;;;52.20;21.30;;;;;;;-1.05;68.27;101062.92;52835;1271;1017730;-58
2022/03/08 01:42:34;;;;;;;51.20;19.60;;;;;;;-1.08;68.13;101070.41;52955;1270;1016345;-53
2022/03/08 01:45:07;;;;;;;49.10;18.80;;;;;;;-1.13;68.18;101070.92;52873;1271;1016182;-58
2022/03/08 01:47:38;;;;;;;56.80;22.40;;;;;;;-1.16;68.33;101073.33;52897;1273;1016308;-59
2022/03/08 01:50:13;;;;;;;57.30;21.70;;;;;;;-1.21;68.60;101073.98;52879;1273;1016784;-58
2022/03/08 01:52:44;;;;;;;52.80;19.90;;;;;;;-1.24;68.84;101077.41;52898;1273;1016724;-57
2022/03/08 01:55:17;;;;;;;53.90;21.10;;;;;;;-1.29;68.91;101075.89;52849;1271;1016363;-57
2022/03/08 01:57:50;;;;;;;50.20;21.60;;;;;;;-1.33;69.00;101080.79;52873;1270;1018310;-56
2022/03/08 02:00:27;;;;;;;45.20;20.10;;;;;;;-1.37;68.99;101090.44;52886;1270;1016591;-54
2022/03/08 02:02:59;;;;;;;56.60;20.40;;;;;;;-1.41;68.91;101092.99;52913;1271;1016309;-58
2022/03/08 02:05:31;;;;;;;54.80;21.60;;;;;;;-1.43;69.05;101093.52;52947;1270;1016585;-58
2022/03/08 02:08:03;;;;;;;53.70;20.80;;;;;;;-1.46;69.01;101094.75;52851;1272;1016503;-58
2022/03/08 02:10:34;;;;;;;51.70;21.70;;;;;;;-1.49;68.89;101101.99;52954;1271;1017990;-58
2022/03/08 02:13:05;;;;;;;54.40;20.60;;;;;;;-1.52;68.93;101101.73;52841;1271;1016681;-55
2022/03/08 02:15:37;;;;;;;51.10;19.60;;;;;;;-1.56;69.24;101103.41;52918;1271;1016587;-56
2022/03/08 02:18:08;;;;;;;52.10;21.10;;;;;;;-1.61;69.34;101102.50;52945;1271;1018183;-59
2022/03/08 02:20:39;;;;;;;56.00;19.20;;;;;;;-1.65;69.08;101097.45;52870;1270;1016622;-56
2022/03/08 02:23:10;;;;;;;51.00;21.30;;;;;;;-1.68;68.95;101097.66;52883;1271;1015855;-57
2022/03/08 02:25:42;;;;;;;46.30;18.60;;;;;;;-1.72;69.00;101090.27;52824;1272;1016219;-56
2022/03/08 02:28:13;;;;;;;49.40;18.90;;;;;;;-1.75;69.01;101083.59;52849;1272;1015979;-56
2022/03/08 02:30:46;;;;;;;46.50;19.70;;;;;;;-1.78;69.10;101083.09;52777;1272;1017853;-56
2022/03/08 02:33:17;;;;;;;48.50;19.60;;;;;;;-1.82;69.09;101079.30;52876;1270;1016576;-55
2022/03/08 02:35:50;;;;;;;55.80;21.00;;;;;;;-1.84;68.95;101079.65;52857;1272;1017578;-56
2022/03/08 02:38:21;;;;;;;54.30;20.50;;;;;;;-1.86;68.96;101084.09;52824;1271;1016334;-59
2022/03/08 02:40:53;;;;;;;53.30;22.50;;;;;;;-1.87;68.88;101082.27;52854;1270;1016550;-58
2022/03/08 02:43:25;;;;;;;48.20;20.00;;;;;;;-1.89;68.99;101076.16;53000;1273;1016339;-57
2022/03/08 02:45:56;;;;;;;56.20;20.40;;;;;;;-1.92;68.96;101075.27;52838;1271;1016630;-57
2022/03/08 02:48:30;;;;;;;48.10;20.00;;;;;;;-1.96;68.95;101078.67;52902;1270;1016669;-56
2022/03/08 02:51:03;;;;;;;53.70;20.20;;;;;;;-1.97;68.90;101078.81;52940;1273;1019854;-59
2022/03/08 02:53:35;;;;;;;52.40;19.70;;;;;;;-1.97;68.88;101078.34;52856;1271;1019908;-54
2022/03/08 02:56:06;;;;;;;50.10;19.00;;;;;;;-1.99;68.89;101081.53;52885;1270;1016420;-56
2022/03/08 02:58:38;;;;;;;56.30;21.10;;;;;;;-2.01;68.93;101083.61;52963;1270;1017141;-57
2022/03/08 03:01:10;;;;;;;49.20;19.90;;;;;;;-2.02;68.87;101086.03;52838;1271;1016934;-58
2022/03/08 03:03:41;;;;;;;55.50;21.20;;;;;;;-2.04;68.88;101085.77;52891;1272;1016385;-57
2022/03/08 03:06:12;;;;;;;54.40;21.00;;;;;;;-2.07;68.91;101084.34;52781;1271;1017501;-56
2022/03/08 03:08:44;;;;;;;52.80;19.80;;;;;;;-2.09;69.05;101083.98;53046;1271;1016170;-58
2022/03/08 03:11:15;;;;;;;50.90;19.00;;;;;;;-2.15;69.25;101084.55;52830;1273;1016674;-57
2022/03/08 03:13:46;;;;;;;49.50;20.40;;;;;;;-2.17;69.16;101085.94;52955;1272;1016338;-58
2022/03/08 03:16:17;;;;;;;52.00;20.50;;;;;;;-2.22;69.41;101088.77;52919;1272;1018938;-55
2022/03/08 03:18:48;;;;;;;51.00;20.50;;;;;;;-2.27;69.62;101089.39;52826;1271;1016536;-55
2022/03/08 03:21:20;;;;;;;55.60;19.70;;;;;;;-2.30;69.47;101094.20;52971;1270;1018394;-55
2022/03/08 03:23:51;;;;;;;56.10;21.70;;;;;;;-2.35;69.64;101097.42;52890;1271;1018509;-58
2022/03/08 03:26:23;;;;;;;58.40;21.90;;;;;;;-2.43;69.49;101101.06;52853;1271;1016405;-56
2022/03/08 03:28:54;;;;;;;53.80;20.70;;;;;;;-2.50;69.44;101103.71;53062;1271;1016376;-59
2022/03/08 03:31:25;;;;;;;59.70;22.20;;;;;;;-2.55;69.50;101108.55;52835;1271;1021065;-55
2022/03/08 03:33:57;;;;;;;49.80;21.50;;;;;;;-2.59;69.39;101107.96;52889;1272;1016270;-54
2022/03/08 03:36:28;;;;;;;56.50;22.50;;;;;;;-2.64;69.33;101109.92;52898;1271;1016168;-56
2022/03/08 03:39:00;;;;;;;54.70;21.80;;;;;;;-2.67;69.34;101111.90;52942;1271;1016724;-57
2022/03/08 03:41:31;;;;;;;69.40;23.50;;;;;;;-2.68;69.41;101113.14;52973;1270;1016544;-55
2022/03/08 03:44:02;;;;;;;60.60;21.60;;;;;;;-2.73;69.37;101112.45;52906;1273;1018647;-57
2022/03/08 03:46:34;;;;;;;62.30;26.00;;;;;;;-2.79;69.50;101110.16;52851;1272;1016603;-56
2022/03/08 03:49:06;;;;;;;68.50;28.20;;;;;;;-2.83;69.54;101114.40;52853;1271;1016610;-55
2022/03/08 03:51:37;;;;;;;71.60;26.40;;;;;;;-2.87;69.67;101114.73;52789;1271;1017506;-55
2022/03/08 03:54:09;;;;;;;73.20;30.20;;;;;;;-2.89;69.68;101114.55;52918;1272;1016261;-55
2022/03/08 03:56:41;;;;;;;68.40;25.30;;;;;;;-2.92;69.90;101109.58;52922;1273;1015775;-57
2022/03/08 03:59:13;;;;;;;70.90;27.70;;;;;;;-2.99;69.83;101113.04;52919;1271;1016541;-57
2022/03/08 04:01:45;;;;;;;71.70;29.50;;;;;;;-3.06;70.11;101115.37;52939;1271;1016277;-55
2022/03/08 04:04:17;;;;;;;75.10;30.10;;;;;;;-3.06;71.13;101119.66;52956;1270;1016347;-55
2022/03/08 04:06:48;;;;;;;68.60;26.20;;;;;;;-3.09;71.58;101120.39;52859;1272;1016484;-55
2022/03/08 04:09:19;;;;;;;67.50;24.50;;;;;;;-3.14;71.49;101122.71;52860;1271;1017444;-54
2022/03/08 04:11:51;;;;;;;55.80;21.10;;;;;;;-3.19;71.67;101117.72;52952;1271;1016543;-57
2022/03/08 04:14:23;;;;;;;54.40;21.90;;;;;;;-3.20;72.03;101112.56;53004;1271;1017245;-55
2022/03/08 04:16:54;;;;;;;56.50;19.70;;;;;;;-3.22;72.26;101111.59;52836;1272;1016217;-57
2022/03/08 04:19:26;;;;;;;56.20;22.30;;;;;;;-3.21;72.17;101109.42;52793;1271;1016621;-57
2022/03/08 04:21:58;;;;;;;50.60;20.20;;;;;;;-3.18;72.15;101115.47;53026;1272;1015957;-57
2022/03/08 04:24:29;;;;;;;49.70;20.70;;;;;;;-3.20;72.21;101122.17;52883;1271;1016460;-58
2022/03/08 04:27:00;;;;;;;59.60;21.50;;;;;;;-3.21;72.34;101122.30;52847;1271;1016499;-56
2022/03/08 04:29:32;;;;;;;51.70;19.50;;;;;;;-3.23;72.12;101125.54;52972;1271;1016284;-57
2022/03/08 04:32:04;;;;;;;51.50;20.30;;;;;;;-3.24;71.91;101129.96;52956;1271;1016364;-58
2022/03/08 04:34:35;;;;;;;50.00;19.00;;;;;;;-3.24;72.54;101129.66;52951;1271;1016728;-56
2022/03/08 04:37:07;;;;;;;50.40;21.70;;;;;;;-3.24;72.19;101132.39;52813;1271;1017315;-60
2022/03/08 04:39:38;;;;;;;54.00;20.70;;;;;;;-3.26;72.08;101135.48;52814;1272;1016673;-54
2022/03/08 04:42:10;;;;;;;50.20;19.90;;;;;;;-3.27;72.42;101140.08;52833;1271;1016577;-57
2022/03/08 04:44:42;;;;;;;50.70;17.50;;;;;;;-3.26;73.13;101142.51;52808;1271;1016367;-56
2022/03/08 04:47:13;;;;;;;51.30;20.60;;;;;;;-3.25;73.26;101139.78;52853;1272;1016818;-55
2022/03/08 04:49:44;;;;;;;50.00;20.10;;;;;;;-3.24;73.09;101135.57;52850;1271;1016414;-55
2022/03/08 04:52:16;;;;;;;51.30;20.20;;;;;;;-3.22;72.47;101143.65;52905;1271;1016253;-55
2022/03/08 04:54:47;;;;;;;50.40;20.00;;;;;;;-3.20;72.40;101135.57;52946;1271;1016793;-58
2022/03/08 04:57:18;;;;;;;52.00;20.00;;;;;;;-3.21;72.45;101140.80;52813;1271;1018231;-58
2022/03/08 04:59:50;;;;;;;51.80;18.40;;;;;;;-3.21;72.67;101147.59;52927;1271;1015932;-56
2022/03/08 05:02:22;;;;;;;50.50;20.70;;;;;;;-3.21;72.79;101146.56;52893;1271;1016504;-58
2022/03/08 05:04:53;;;;;;;55.00;21.20;;;;;;;-3.21;73.17;101150.16;52975;1271;1016576;-60
2022/03/08 05:07:25;;;;;;;56.80;21.00;;;;;;;-3.20;73.58;101150.79;52804;1271;1016971;-56
2022/03/08 05:09:56;;;;;;;52.90;21.30;;;;;;;-3.20;73.78;101147.52;52871;1271;1017991;-56
2022/03/08 05:12:27;;;;;;;58.60;22.00;;;;;;;-3.19;73.92;101146.67;52858;1271;1016205;-60
2022/03/08 05:14:59;;;;;;;61.70;21.20;;;;;;;-3.16;74.22;101149.38;52851;1271;1018139;-58
2022/03/08 05:17:31;;;;;;;56.90;22.40;;;;;;;-3.14;74.25;101156.89;52886;1271;1018119;-60
2022/03/08 05:20:02;;;;;;;58.40;22.10;;;;;;;-3.12;74.25;101160.76;52895;1271;1016756;-59
2022/03/08 05:22:34;;;;;;;57.30;21.00;;;;;;;-3.09;74.32;101158.48;52862;1271;1016657;-58
2022/03/08 05:25:07;;;;;;;55.00;21.60;;;;;;;-3.04;74.38;101165.26;52833;1273;1016581;-60
2022/03/08 05:27:39;;;;;;;58.70;21.80;;;;;;;-3.01;74.45;101166.64;52776;1270;1016637;-59
2022/03/08 05:30:13;;;;;;;54.10;22.50;;;;;;;-2.97;74.66;101162.96;52866;1270;1016603;-60
2022/03/08 05:32:48;;;;;;;60.40;24.20;;;;;;;-2.93;74.62;101162.40;52907;1271;1016421;-58
2022/03/08 05:35:20;;;;;;;57.00;23.90;;;;;;;-2.89;74.67;101162.54;52865;1271;1019110;-57
2022/03/08 05:37:52;;;;;;;52.20;21.80;;;;;;;-2.85;74.89;101162.55;52794;1272;1016671;-59
2022/03/08 05:40:24;;;;;;;63.20;25.40;;;;;;;-2.81;74.91;101168.77;52857;1272;1018704;-60
2022/03/08 05:42:55;;;;;;;67.30;24.70;;;;;;;-2.77;74.97;101172.43;52908;1271;1016268;-57
2022/03/08 05:45:27;;;;;;;63.60;24.30;;;;;;;-2.72;75.14;101180.55;52963;1271;1016471;-61
2022/03/08 05:47:59;;;;;;;62.40;25.20;;;;;;;-2.69;75.29;101182.54;52892;1270;1018350;-59
2022/03/08 05:50:30;;;;;;;67.70;24.30;;;;;;;-2.66;75.28;101185.33;52730;1271;1020363;-60
2022/03/08 05:53:01;;;;;;;61.90;26.50;;;;;;;-2.63;75.44;101185.36;52544;1271;1016561;-58
2022/03/08 05:55:33;;;;;;;60.80;26.00;;;;;;;-2.60;75.47;101188.39;53158;1271;1016593;-58
2022/03/08 05:58:04;;;;;;;56.30;26.10;;;;;;;-2.56;75.63;101198.14;52728;1271;1020151;-60
2022/03/08 06:00:35;;;;;;;63.20;26.70;;;;;;;-2.53;75.74;101199.42;52910;1271;1016708;-59
2022/03/08 06:03:07;;;;;;;63.20;25.40;;;;;;;-2.49;75.80;101209.56;53026;1271;1018241;-59
2022/03/08 06:05:39;;;;;;;62.10;25.30;;;;;;;-2.44;75.94;101215.56;52848;1271;1016625;-60
2022/03/08 06:08:11;;;;;;;62.70;27.50;;;;;;;-2.39;75.97;101221.59;52821;1271;1016508;-58
2022/03/08 06:10:42;;;;;;;59.30;26.00;;;;;;;-2.34;76.12;101219.01;52806;1271;1016741;-58
2022/03/08 06:13:13;;;;;;;63.90;26.40;;;;;;;-2.30;76.19;101213.67;52893;1271;1016638;-57
2022/03/08 06:15:45;;;;;;;67.70;26.00;;;;;;;-2.25;76.22;101207.11;52825;1271;1016498;-60
2022/03/08 06:18:16;;;;;;;64.80;27.10;;;;;;;-2.21;76.25;101208.50;52805;1271;1016335;-59
2022/03/08 06:20:47;;;;;;;66.00;25.20;;;;;;;-2.16;76.53;101209.05;52912;1271;1016269;-58
2022/03/08 06:23:18;;;;;;;68.20;26.90;;;;;;;-2.10;76.59;101207.02;52752;1271;1016179;-60
2022/03/08 06:25:50;;;;;;;58.90;26.20;;;;;;;-2.04;76.67;101213.02;52899;1271;1016517;-57
2022/03/08 06:28:21;;;;;;;58.40;26.20;;;;;;;-1.99;76.73;101217.72;52905;1271;1016448;-60
2022/03/08 06:30:53;;;;;;;61.20;25.40;;;;;;;-1.93;76.80;101220.67;52809;1271;1016413;-58
2022/03/08 06:33:26;;;;;;;63.20;27.10;;;;;;;-1.87;76.85;101221.86;52867;1271;1016169;-61
2022/03/08 06:35:58;;;;;;;60.00;25.20;;;;;;;-1.80;76.85;101215.21;52927;1271;1017512;-59
2022/03/08 06:38:29;;;;;;;60.60;26.30;;;;;;;-1.73;76.92;101223.45;52810;1272;1016352;-58
2022/03/08 06:41:01;;;;;;;61.40;25.30;;;;;;;-1.68;76.94;101226.57;52744;1272;1016607;-59
2022/03/08 06:43:32;;;;;;;60.70;25.00;;;;;;;-1.60;76.98;101229.31;52838;1272;1016496;-58
2022/03/08 06:46:04;;;;;;;60.40;25.20;;;;;;;-1.55;77.12;101231.25;52801;1274;1018399;-59
2022/03/08 06:48:36;;;;;;;63.20;25.60;;;;;;;-1.48;77.31;101232.05;52891;1271;1016340;-59
2022/03/08 06:51:08;;;;;;;64.50;25.20;;;;;;;-1.41;77.28;101234.78;52791;1271;1016153;-61
2022/03/08 06:53:40;;;;;;;59.40;23.90;;;;;;;-1.35;77.49;101238.36;52771;1271;1016346;-60
2022/03/08 06:56:11;;;;;;;53.70;23.30;;;;;;;-1.30;77.61;101242.89;52784;1271;1016483;-60
2022/03/08 06:58:43;;;;;;;63.40;24.60;;;;;;;-1.23;77.68;101244.61;52792;1271;1016674;-58
2022/03/08 07:01:14;;;;;;;57.70;23.60;;;;;;;-1.17;77.82;101248.27;52750;1271;1016776;-58
2022/03/08 07:03:46;;;;;;;57.10;23.20;;;;;;;-1.11;77.90;101246.15;52796;1271;1016620;-61
2022/03/08 07:06:19;;;;;;;58.20;22.90;;;;;;;-1.05;77.91;101239.25;52850;1271;1018748;-60
2022/03/08 07:08:50;;;;;;;51.30;21.00;;;;;;;-1.00;78.02;101242.58;52618;1271;1016546;-57
2022/03/08 07:11:22;;;;;;;55.80;22.40;;;;;;;-0.94;78.03;101235.81;52852;1271;1016661;-59
2022/03/08 07:13:53;;;;;;;57.10;23.90;;;;;;;-0.89;78.18;101238.15;53320;1271;1016356;-57
2022/03/08 07:16:26;;;;;;;50.80;20.60;;;;;;;-0.85;78.15;101234.81;52938;1271;1016743;-60
2022/03/08 07:18:58;;;;;;;56.30;23.10;;;;;;;-0.79;78.14;101235.65;52836;1271;1015815;-58
2022/03/08 07:21:30;;;;;;;55.00;22.70;;;;;;;-0.75;78.09;101233.19;52881;1271;1016571;-59
2022/03/08 07:24:03;;;;;;;53.40;22.30;;;;;;;-0.69;78.28;101232.69;52907;1271;1016718;-58
2022/03/08 07:26:34;;;;;;;50.60;20.60;;;;;;;-0.64;78.34;101236.95;52835;1271;1016579;-59
2022/03/08 07:29:06;;;;;;;51.80;21.00;;;;;;;-0.59;78.13;101243.19;52803;1271;1016738;-59
2022/03/08 07:31:40;;;;;;;47.70;18.90;;;;;;;-0.54;78.37;101247.55;52918;1271;1016830;-60
2022/03/08 07:34:14;;;;;;;52.50;21.50;;;;;;;-0.46;78.35;101254.19;52825;1271;1016302;-57
2022/03/08 07:36:46;;;;;;;45.90;21.30;;;;;;;-0.39;78.34;101250.88;52885;1271;1018161;-58
2022/03/08 07:39:18;;;;;;;50.40;21.10;;;;;;;-0.33;78.39;101254.29;52901;1271;1016407;-59
2022/03/08 07:41:49;;;;;;;48.40;21.10;;;;;;;-0.28;78.31;101255.12;52916;1271;1016514;-60
2022/03/08 07:44:21;;;;;;;43.30;20.30;;;;;;;-0.23;78.40;101251.48;52745;1271;1016047;-58
2022/03/08 07:46:55;;;;;;;42.00;15.20;;;;;;;-0.17;78.62;101252.84;52776;1271;1016446;-59
2022/03/08 07:49:27;;;;;;;39.00;13.40;;;;;;;-0.11;78.59;101256.73;52915;1271;1016040;-62
2022/03/08 07:51:59;;;;;;;35.80;13.90;;;;;;;-0.03;78.70;101260.86;52938;1271;1016412;-59
2022/03/08 07:54:31;;;;;;;34.00;12.70;;;;;;;0.06;78.63;101260.83;52865;1271;1016299;-59
2022/03/08 07:57:03;;;;;;;30.00;11.10;;;;;;;0.14;78.70;101266.83;52802;1271;1015797;-56
2022/03/08 07:59:35;;;;;;;35.00;12.30;;;;;;;0.21;78.66;101265.07;52980;1271;1016268;-58
2022/03/08 08:02:07;;;;;;;36.90;14.60;;;;;;;0.27;78.42;101262.59;52884;1271;1017614;-58
2022/03/08 08:04:39;;;;;;;36.40;13.40;;;;;;;0.35;78.57;101261.39;52917;1272;1016251;-58
2022/03/08 08:07:10;;;;;;;33.70;13.90;;;;;;;0.43;78.62;101256.55;52874;1271;1015793;-58
2022/03/08 08:09:42;;;;;;;39.90;14.10;;;;;;;0.51;78.38;101255.01;52940;1271;1016586;-56
2022/03/08 08:12:16;;;;;;;33.60;14.10;;;;;;;0.59;78.25;101254.66;52785;1271;1015895;-58
2022/03/08 08:14:47;;;;;;;32.70;11.20;;;;;;;0.68;78.21;101254.29;52908;1271;1016642;-59
2022/03/08 08:17:19;;;;;;;33.20;11.20;;;;;;;0.75;78.00;101251.02;53012;1271;1016762;-59
2022/03/08 08:19:50;;;;;;;30.60;11.30;;;;;;;0.81;77.45;101249.93;53028;1271;1016580;-59
2022/03/08 08:22:22;;;;;;;26.70;8.50;;;;;;;0.86;77.23;101253.88;52780;1271;1016286;-56
2022/03/08 08:24:53;;;;;;;28.40;10.20;;;;;;;0.91;77.13;101249.96;52939;1271;1016607;-57
2022/03/08 08:27:25;;;;;;;25.90;9.10;;;;;;;0.98;77.14;101251.39;52915;1271;1017694;-56
2022/03/08 08:29:57;;;;;;;27.70;9.10;;;;;;;1.03;76.81;101252.11;52824;1271;1016386;-57
2022/03/08 08:32:28;;;;;;;25.70;9.60;;;;;;;1.11;76.68;101253.85;52759;1272;1016396;-57
2022/03/08 08:35:00;;;;;;;25.70;8.20;;;;;;;1.21;76.63;101257.41;52758;1271;1016311;-56
2022/03/08 08:37:31;;;;;;;24.60;8.10;;;;;;;1.31;76.38;101259.15;52800;1271;1017145;-58
2022/03/08 08:40:04;;;;;;;23.40;7.20;;;;;;;1.40;76.12;101255.15;52860;1271;1016021;-57
2022/03/08 08:42:35;;;;;;;25.70;8.90;;;;;;;1.47;75.86;101254.67;52902;1271;1016627;-58
2022/03/08 08:45:09;;;;;;;21.10;6.90;;;;;;;1.53;75.96;101253.34;52772;1271;1016148;-57
2022/03/08 08:47:41;;;;;;;25.30;8.30;;;;;;;1.60;75.35;101253.56;52894;1270;1016512;-58
2022/03/08 08:50:14;;;;;;;28.90;8.20;;;;;;;1.67;75.12;101254.83;52756;1271;1016161;-57
2022/03/08 08:52:45;;;;;;;18.40;7.20;;;;;;;1.75;74.89;101253.80;52861;1271;1016095;-58
2022/03/08 08:55:17;;;;;;;16.10;4.00;;;;;;;1.82;74.10;101255.84;52797;1270;1016580;-56
2022/03/08 08:57:49;;;;;;;20.60;5.60;;;;;;;1.86;73.49;101251.27;52788;1271;1017102;-57
2022/03/08 09:00:21;;;;;;;18.60;5.20;;;;;;;1.90;73.75;101255.05;52946;1271;1016372;-57
2022/03/08 09:02:53;;;;;;;16.20;3.80;;;;;;;1.97;73.34;101257.16;52963;1271;1016627;-57
2022/03/08 09:05:24;;;;;;;19.60;5.00;;;;;;;2.03;73.46;101254.71;52872;1271;1016647;-56
2022/03/08 09:07:56;;;;;;;17.20;4.80;;;;;;;2.11;73.43;101260.83;52767;1271;1016470;-61
2022/03/08 09:10:28;;;;;;;20.70;5.50;;;;;;;2.16;73.34;101256.41;52712;1271;1020080;-59
2022/03/08 09:12:59;;;;;;;17.10;4.80;;;;;;;2.23;73.50;101260.64;52757;1271;1016323;-58
2022/03/08 09:15:31;;;;;;;20.30;4.30;;;;;;;2.32;73.44;101262.98;52834;1270;1016371;-57
2022/03/08 09:18:05;;;;;;;12.20;2.40;;;;;;;2.40;72.70;101257.29;52884;1271;1016131;-59
2022/03/08 09:20:38;;;;;;;19.80;3.50;;;;;;;2.44;72.47;101260.35;52786;1270;1018752;-56
2022/03/08 09:23:11;;;;;;;15.70;3.40;;;;;;;2.52;72.37;101267.47;52565;1272;1016669;-59
2022/03/08 09:25:42;;;;;;;17.00;5.00;;;;;;;2.59;72.25;101264.06;52782;1271;1015917;-60
2022/03/08 09:28:13;;;;;;;16.60;4.50;;;;;;;2.67;72.62;101265.13;52815;1271;1016720;-56
2022/03/08 09:30:48;;;;;;;18.90;4.80;;;;;;;2.75;72.27;101265.41;52817;1270;1015894;-57
2022/03/08 09:33:19;;;;;;;19.00;4.80;;;;;;;2.80;71.86;101265.70;52893;1271;1016373;-59
2022/03/08 09:35:50;;;;;;;13.40;3.10;;;;;;;2.83;71.50;101265.30;52868;1271;1016432;-58
2022/03/08 09:38:22;;;;;;;10.60;2.40;;;;;;;2.87;71.25;101264.88;52912;1271;1018749;-58
2022/03/08 09:40:55;;;;;;;11.00;1.80;;;;;;;2.90;70.39;101261.70;52828;1271;1016571;-57
2022/03/08 09:43:27;;;;;;;7.30;2.00;;;;;;;2.94;70.62;101263.11;52903;1270;1016421;-57
2022/03/08 09:45:58;;;;;;;12.40;2.50;;;;;;;3.02;70.61;101268.03;52830;1271;1016384;-60
2022/03/08 09:48:30;;;;;;;15.50;3.20;;;;;;;3.09;70.53;101257.58;52783;1271;1017829;-60
2022/03/08 09:51:03;;;;;;;10.40;2.20;;;;;;;3.13;69.88;101251.56;52843;1271;1015978;-58
2022/03/08 09:53:36;;;;;;;14.30;2.90;;;;;;;3.13;69.60;101245.27;52925;1270;1016250;-60
2022/03/08 09:56:08;;;;;;;16.90;4.10;;;;;;;3.12;69.53;101247.30;52775;1270;1015988;-59
2022/03/08 09:58:40;;;;;;;14.60;4.00;;;;;;;3.13;69.55;101247.86;52780;1271;1016583;-58
2022/03/08 10:01:13;;;;;;;12.40;3.60;;;;;;;3.18;69.62;101248.30;52698;1270;1016594;-58
2022/03/08 10:03:46;;;;;;;18.90;4.70;;;;;;;3.26;69.80;101244.78;52784;1270;1016343;-59
2022/03/08 10:06:18;;;;;;;17.40;4.10;;;;;;;3.30;69.54;101242.94;52793;1271;1016644;-59
2022/03/08 10:08:50;;;;;;;20.10;4.90;;;;;;;3.31;69.36;101240.70;52825;1270;1016491;-60
2022/03/08 10:11:21;;;;;;;20.90;5.30;;;;;;;3.34;69.73;101241.80;52869;1271;1016586;-58
2022/03/08 10:13:53;;;;;;;11.80;2.80;;;;;;;3.34;68.82;101245.11;52865;1271;1016466;-58
2022/03/08 10:16:26;;;;;;;15.50;3.60;;;;;;;3.28;68.26;101245.30;52863;1270;1016203;-59
2022/03/08 10:19:02;;;;;;;17.50;4.00;;;;;;;3.25;67.87;101251.88;52850;1271;1015924;-58
2022/03/08 10:21:38;;;;;;;16.20;4.00;;;;;;;3.21;68.76;101252.14;52779;1271;1018336;-59
2022/03/08 10:24:19;;;;;;;17.40;4.30;;;;;;;3.24;68.48;101247.70;52837;1270;1016542;-59
2022/03/08 10:26:55;;;;;;;16.20;4.70;;;;;;;3.23;68.22;101244.08;52752;1271;1015551;-59
2022/03/08 10:29:30;;;;;;;20.00;5.00;;;;;;;3.23;67.84;101247.31;53151;1271;1015935;-61
2022/03/08 10:32:11;;;;;;;17.40;4.30;;;;;;;3.22;68.24;101240.86;53025;1271;1016127;-58
2022/03/08 10:34:43;;;;;;;15.20;3.80;;;;;;;3.24;68.00;101240.69;52849;1271;1016575;-59
2022/03/08 10:37:19;;;;;;;10.70;2.20;;;;;;;3.29;67.79;101243.79;52817;1271;1016696;-59
2022/03/08 10:39:53;;;;;;;17.60;5.40;;;;;;;3.36;67.74;101241.38;52737;1271;1016706;-57
2022/03/08 10:42:26;;;;;;;18.10;5.60;;;;;;;3.40;67.96;101240.49;52873;1271;1016358;-57
2022/03/08 10:45:04;;;;;;;18.20;4.10;;;;;;;3.46;67.77;101242.58;52773;1271;1015961;-59
2022/03/08 10:47:43;;;;;;;16.40;5.40;;;;;;;3.48;67.54;101239.08;52800;1271;1016203;-56
2022/03/08 10:50:16;;;;;;;16.80;4.30;;;;;;;3.46;67.17;101238.46;52815;1271;1016450;-57
2022/03/08 10:52:50;;;;;;;21.90;4.50;;;;;;;3.41;66.59;101230.31;52769;1271;1016410;-58
2022/03/08 10:55:23;;;;;;;12.00;2.80;;;;;;;3.33;66.42;101228.02;52661;1271;1016754;-56
2022/03/08 10:57:56;;;;;;;13.70;4.00;;;;;;;3.24;66.44;101220.83;52745;1271;1016657;-58
2022/03/08 11:00:30;;;;;;;13.60;3.80;;;;;;;3.26;66.97;101216.55;52796;1271;1017940;-61
2022/03/08 11:03:04;;;;;;;17.20;4.10;;;;;;;3.30;66.60;101214.63;52764;1271;1016636;-58
2022/03/08 11:05:38;;;;;;;18.40;5.10;;;;;;;3.33;66.70;101209.31;52861;1271;1016762;-59
2022/03/08 11:08:10;;;;;;;15.10;3.00;;;;;;;3.39;66.57;101209.19;52681;1271;1016349;-59
2022/03/08 11:10:43;;;;;;;18.10;4.70;;;;;;;3.43;65.65;101203.08;52700;1270;1016527;-59
2022/03/08 11:13:15;;;;;;;15.60;3.60;;;;;;;3.49;66.19;101198.30;52772;1271;1016446;-57
2022/03/08 11:15:47;;;;;;;15.20;3.70;;;;;;;3.56;66.00;101191.07;52810;1270;1016575;-58
2022/03/08 11:18:19;;;;;;;14.20;3.90;;;;;;;3.60;65.92;101191.02;52773;1271;1019110;-59
2022/03/08 11:20:51;;;;;;;16.00;4.70;;;;;;;3.61;65.62;101187.77;52887;1271;1015852;-57